createdAt,value
2019-04-06T00:01:05.217Z,5.47
2019-04-06T00:03:39.202Z,5.41
2019-04-06T00:06:16.777Z,5.49
2019-04-06T00:08:55.541Z,5.70
2019-04-06T00:11:29.692Z,5.55
2019-04-06T00:14:06.935Z,5.38
2019-04-06T00:16:40.834Z,5.80
2019-04-06T00:19:14.501Z,6.25
2019-04-06T00:21:50.312Z,6.39
2019-04-06T00:24:26.578Z,6.75
2019-04-06T00:27:01.391Z,6.62
2019-04-06T00:29:35.261Z,7.17
2019-04-06T00:32:10.022Z,7.47
2019-04-06T00:34:45.289Z,7.58
2019-04-06T00:37:18.851Z,7.44
2019-04-06T00:39:52.435Z,7.40
2019-04-06T00:42:26.208Z,7.82
2019-04-06T00:45:01.716Z,7.99
2019-04-06T00:47:35.568Z,7.99
2019-04-06T00:50:10.275Z,8.00
2019-04-06T00:52:44.096Z,8.15
2019-04-06T00:55:37.188Z,7.96
2019-04-06T00:58:11.133Z,8.07
2019-04-06T01:00:45.552Z,8.24
2019-04-06T01:03:19.069Z,8.46
2019-04-06T01:05:53.105Z,8.15
2019-04-06T01:08:27.049Z,8.35
2019-04-06T01:11:00.835Z,8.35
2019-04-06T01:13:35.130Z,8.76
2019-04-06T01:16:08.761Z,8.53
2019-04-06T01:18:42.697Z,8.57
2019-04-06T01:21:16.944Z,8.53
2019-04-06T01:23:50.946Z,8.55
2019-04-06T01:26:24.810Z,8.42
2019-04-06T01:29:18.403Z,8.34
2019-04-06T01:31:52.705Z,8.74
2019-04-06T01:34:26.643Z,9.09
2019-04-06T01:37:00.503Z,9.00
2019-04-06T01:39:36.209Z,9.52
2019-04-06T01:42:11.074Z,9.34
2019-04-06T01:44:44.791Z,9.33
2019-04-06T01:47:18.727Z,9.42
2019-04-06T01:49:52.486Z,9.69
2019-04-06T01:52:26.425Z,9.38
2019-04-06T01:55:02.392Z,9.30
2019-04-06T01:57:36.306Z,9.52
2019-04-06T02:00:11.447Z,10.04
2019-04-06T02:02:45.319Z,9.88
2019-04-06T02:05:40.874Z,9.99
2019-04-06T02:08:14.930Z,10.71
2019-04-06T02:10:48.556Z,10.68
2019-04-06T02:13:22.762Z,10.29
2019-04-06T02:15:56.665Z,10.89
2019-04-06T02:18:31.517Z,10.55
2019-04-06T02:21:05.430Z,10.90
2019-04-06T02:23:39.214Z,11.15
2019-04-06T02:26:14.235Z,11.31
2019-04-06T02:28:48.478Z,11.34
2019-04-06T02:31:22.655Z,11.27
2019-04-06T02:33:56.309Z,11.27
2019-04-06T02:36:29.989Z,11.00
2019-04-06T02:39:03.810Z,11.23
2019-04-06T02:41:37.881Z,11.15
2019-04-06T02:44:12.089Z,11.49
2019-04-06T02:46:45.817Z,11.77
2019-04-06T02:49:19.739Z,11.94
2019-04-06T02:51:54.080Z,11.96
2019-04-06T02:54:27.875Z,12.15
2019-04-06T02:57:03.230Z,11.83
2019-04-06T02:59:37.089Z,11.92
2019-04-06T03:02:13.159Z,11.34
2019-04-06T03:04:47.042Z,11.23
2019-04-06T03:07:20.804Z,11.32
2019-04-06T03:09:54.777Z,11.37
2019-04-06T03:12:28.379Z,11.11
2019-04-06T03:15:02.636Z,9.94
2019-04-06T03:17:36.290Z,10.41
2019-04-06T03:20:10.934Z,10.48
2019-04-06T03:22:45.924Z,10.11
2019-04-06T03:25:19.710Z,10.47
2019-04-06T03:27:55.375Z,10.40
2019-04-06T03:30:31.260Z,9.75
2019-04-06T03:33:05.841Z,9.65
2019-04-06T03:35:46.028Z,10.18
2019-04-06T03:38:14.946Z,10.17
2019-04-06T03:40:48.880Z,10.42
2019-04-06T03:43:24.336Z,10.42
2019-04-06T03:45:59.124Z,10.17
2019-04-06T03:48:39.417Z,9.63
2019-04-06T03:51:14.544Z,9.57
2019-04-06T03:53:48.973Z,9.74
2019-04-06T03:56:23.364Z,9.79
2019-04-06T03:58:57.737Z,10.51
2019-04-06T04:01:33.244Z,11.08
2019-04-06T04:04:07.586Z,10.45
2019-04-06T04:06:48.344Z,11.51
2019-04-06T04:09:23.833Z,12.10
2019-04-06T04:11:58.211Z,11.68
2019-04-06T04:14:34.117Z,11.48
2019-04-06T04:17:07.929Z,10.67
2019-04-06T04:19:44.280Z,10.45
2019-04-06T04:22:20.681Z,10.07
2019-04-06T04:24:54.924Z,10.38
2019-04-06T04:27:30.489Z,10.67
2019-04-06T04:30:04.541Z,10.24
2019-04-06T04:32:42.184Z,10.67
2019-04-06T04:35:18.328Z,10.42
2019-04-06T04:37:50.869Z,10.67
2019-04-06T04:40:25.299Z,10.64
2019-04-06T04:42:59.424Z,10.43
2019-04-06T04:45:33.881Z,10.74
2019-04-06T04:48:10.076Z,11.10
2019-04-06T04:50:51.069Z,11.69
2019-04-06T04:53:25.441Z,11.51
2019-04-06T04:55:59.372Z,12.08
2019-04-06T04:58:32.873Z,12.59
2019-04-06T05:01:06.742Z,11.55
2019-04-06T05:03:41.400Z,11.39
2019-04-06T05:06:17.600Z,12.14
2019-04-06T05:08:53.103Z,12.79
2019-04-06T05:11:27.381Z,12.46
2019-04-06T05:14:36.844Z,11.89
2019-04-06T05:17:10.682Z,11.47
2019-04-06T05:19:45.177Z,11.03
2019-04-06T05:22:18.999Z,10.70
2019-04-06T05:24:53.209Z,10.42
2019-04-06T05:27:27.221Z,10.35
2019-04-06T05:30:01.538Z,10.32
2019-04-06T05:32:35.421Z,11.06
2019-04-06T05:35:10.306Z,10.96
2019-04-06T05:37:44.306Z,10.60
2019-04-06T05:40:19.791Z,10.70
2019-04-06T05:42:53.684Z,10.51
2019-04-06T05:45:28.899Z,10.02
2019-04-06T05:48:03.397Z,9.82
2019-04-06T05:50:41.384Z,10.08
2019-04-06T05:53:15.800Z,10.18
2019-04-06T05:55:49.516Z,10.08
2019-04-06T05:58:26.253Z,10.15
2019-04-06T06:01:00.073Z,9.82
2019-04-06T06:03:40.167Z,10.09
2019-04-06T06:06:12.812Z,10.12
2019-04-06T06:08:47.099Z,10.20
2019-04-06T06:11:20.815Z,9.97
2019-04-06T06:13:54.543Z,9.79
2019-04-06T06:16:28.701Z,9.43
2019-04-06T06:19:02.812Z,9.63
2019-04-06T06:21:36.476Z,9.42
2019-04-06T06:24:10.802Z,9.41
2019-04-06T06:26:45.051Z,9.52
2019-04-06T06:29:19.266Z,9.55
2019-04-06T06:31:54.900Z,9.86
2019-04-06T06:34:28.716Z,9.94
2019-04-06T06:37:02.709Z,10.10
2019-04-06T06:39:36.816Z,10.38
2019-04-06T06:42:10.829Z,10.20
2019-04-06T06:44:44.507Z,10.40
2019-04-06T06:47:18.350Z,10.42
2019-04-06T06:49:52.382Z,10.64
2019-04-06T06:52:29.666Z,10.56
2019-04-06T06:55:04.923Z,10.69
2019-04-06T06:57:39.503Z,10.77
2019-04-06T07:00:15.240Z,10.78
2019-04-06T07:02:49.128Z,11.20
2019-04-06T07:05:22.895Z,11.03
2019-04-06T07:08:05.134Z,11.49
2019-04-06T07:10:41.176Z,11.51
2019-04-06T07:13:15.311Z,11.49
2019-04-06T07:15:49.268Z,11.45
2019-04-06T07:18:24.026Z,11.13
2019-04-06T07:20:58.133Z,10.97
2019-04-06T07:23:31.866Z,11.22
2019-04-06T07:26:10.652Z,11.14
2019-04-06T07:28:44.919Z,11.05
2019-04-06T07:31:20.214Z,11.23
2019-04-06T07:33:53.879Z,10.98
2019-04-06T07:36:28.953Z,11.26
2019-04-06T07:39:02.725Z,11.08
2019-04-06T07:41:36.853Z,10.56
2019-04-06T07:44:11.092Z,10.29
2019-04-06T07:46:44.957Z,10.45
2019-04-06T07:49:18.618Z,10.40
2019-04-06T07:51:53.869Z,10.42
2019-04-06T07:54:28.128Z,10.25
2019-04-06T07:57:02.279Z,10.12
2019-04-06T07:59:36.021Z,10.23
2019-04-06T08:02:10.799Z,10.47
2019-04-06T08:04:44.698Z,10.65
2019-04-06T08:07:18.726Z,10.43
2019-04-06T08:09:52.792Z,10.75
2019-04-06T08:12:26.739Z,10.67
2019-04-06T08:15:01.031Z,10.65
2019-04-06T08:17:36.374Z,10.85
2019-04-06T08:20:11.853Z,10.83
2019-04-06T08:22:45.681Z,10.69
2019-04-06T08:25:22.714Z,10.47
2019-04-06T08:27:56.837Z,10.79
2019-04-06T08:30:30.788Z,10.78
2019-04-06T08:33:05.019Z,10.73
2019-04-06T08:35:40.436Z,10.48
2019-04-06T08:38:14.279Z,10.09
2019-04-06T08:40:48.728Z,9.88
2019-04-06T08:43:24.363Z,10.05
2019-04-06T08:46:00.585Z,10.14
2019-04-06T08:48:34.184Z,10.19
2019-04-06T08:51:09.100Z,9.94
2019-04-06T08:53:43.026Z,9.64
2019-04-06T08:56:17.870Z,9.72
2019-04-06T08:58:51.789Z,9.85
2019-04-06T09:01:25.960Z,9.54
2019-04-06T09:04:00.128Z,9.52
2019-04-06T09:06:34.442Z,9.42
2019-04-06T09:09:10.435Z,9.34
2019-04-06T09:11:46.581Z,9.08
2019-04-06T09:14:20.878Z,8.69
2019-04-06T09:16:55.470Z,8.83
2019-04-06T09:19:29.841Z,8.61
2019-04-06T09:22:05.652Z,8.90
2019-04-06T09:24:39.531Z,8.96
2019-04-06T09:27:13.810Z,8.93
2019-04-06T09:29:47.999Z,8.98
2019-04-06T09:32:22.849Z,8.61
2019-04-06T09:34:56.966Z,8.74
2019-04-06T09:37:32.323Z,8.65
2019-04-06T09:40:07.359Z,8.68
2019-04-06T09:42:42.019Z,8.65
2019-04-06T09:45:16.162Z,8.46
2019-04-06T09:47:50.074Z,8.41
2019-04-06T09:50:24.743Z,8.24
2019-04-06T09:53:04.757Z,8.30
2019-04-06T09:55:39.928Z,8.37
2019-04-06T09:58:14.395Z,8.33
2019-04-06T10:00:50.726Z,8.52
2019-04-06T10:03:34.539Z,8.24
2019-04-06T10:06:10.181Z,8.39
2019-04-06T10:08:44.182Z,8.22
2019-04-06T10:11:18.426Z,8.18
2019-04-06T10:13:53.647Z,8.19
2019-04-06T10:16:27.614Z,8.05
2019-04-06T10:19:07.909Z,8.16
2019-04-06T10:21:42.593Z,8.28
2019-04-06T10:24:17.293Z,7.93
2019-04-06T10:26:51.860Z,7.75
2019-04-06T10:29:26.839Z,7.84
2019-04-06T10:32:00.445Z,7.92
2019-04-06T10:34:34.336Z,7.52
2019-04-06T10:37:10.535Z,7.71
2019-04-06T10:39:46.064Z,7.43
2019-04-06T10:42:20.643Z,7.51
2019-04-06T10:44:54.520Z,7.62
2019-04-06T10:47:28.025Z,7.49
2019-04-06T10:50:02.419Z,7.65
2019-04-06T10:52:36.615Z,7.70
2019-04-06T10:55:12.681Z,7.49
2019-04-06T10:57:47.808Z,7.61
2019-04-06T11:00:24.686Z,7.56
2019-04-06T11:02:59.962Z,7.61
2019-04-06T11:05:36.813Z,7.38
2019-04-06T11:08:11.244Z,7.27
2019-04-06T11:10:45.137Z,7.09
2019-04-06T11:13:19.467Z,6.98
2019-04-06T11:15:54.117Z,6.81
2019-04-06T11:18:28.613Z,7.07
2019-04-06T11:21:03.832Z,7.06
2019-04-06T11:23:37.800Z,6.97
2019-04-06T11:26:11.766Z,6.76
2019-04-06T11:28:45.546Z,6.75
2019-04-06T11:31:21.032Z,6.61
2019-04-06T11:33:55.062Z,6.57
2019-04-06T11:36:28.918Z,6.45
2019-04-06T11:39:03.143Z,6.29
2019-04-06T11:41:36.924Z,6.32
2019-04-06T11:44:10.931Z,6.35
2019-04-06T11:46:44.731Z,6.31
2019-04-06T11:49:19.307Z,6.38
2019-04-06T11:51:53.715Z,6.46
2019-04-06T11:54:33.406Z,6.30
2019-04-06T11:57:08.815Z,6.20
2019-04-06T11:59:42.847Z,6.10
2019-04-06T12:02:16.559Z,6.21
2019-04-06T12:04:50.168Z,6.20
2019-04-06T12:07:26.135Z,6.24
2019-04-06T12:10:13.736Z,6.36
2019-04-06T12:13:05.979Z,6.47
2019-04-06T12:15:35.564Z,6.34
2019-04-06T12:18:10.875Z,6.14
2019-04-06T12:20:45.358Z,5.95
2019-04-06T12:23:19.941Z,5.88
2019-04-06T12:25:56.934Z,6.05
2019-04-06T12:28:31.924Z,6.20
2019-04-06T12:31:06.473Z,6.17
2019-04-06T12:33:42.665Z,5.85
2019-04-06T12:36:17.235Z,5.75
2019-04-06T12:38:52.197Z,5.77
2019-04-06T12:41:27.225Z,5.88
2019-04-06T12:44:01.443Z,5.80
2019-04-06T12:46:36.227Z,5.61
2019-04-06T12:49:10.593Z,5.66
2019-04-06T12:51:46.058Z,5.55
2019-04-06T12:54:32.765Z,5.59
2019-04-06T12:57:10.228Z,5.31
2019-04-06T12:59:45.612Z,5.42
2019-04-06T13:02:20.957Z,5.55
2019-04-06T13:04:57.619Z,5.46
2019-04-06T13:07:51.730Z,5.55
2019-04-06T13:10:26.270Z,5.60
2019-04-06T13:13:03.757Z,5.58
2019-04-06T13:15:40.248Z,5.65
2019-04-06T13:18:18.652Z,5.65
2019-04-06T13:20:54.355Z,5.38
2019-04-06T13:23:29.617Z,5.22
2019-04-06T13:26:10.489Z,5.17
2019-04-06T13:28:46.016Z,5.26
2019-04-06T13:31:20.290Z,5.26
2019-04-06T13:33:54.630Z,5.26
2019-04-06T13:36:32.042Z,4.99
2019-04-06T13:39:08.512Z,5.05
2019-04-06T13:41:43.632Z,5.19
2019-04-06T13:44:18.239Z,5.21
2019-04-06T13:46:52.721Z,4.97
2019-04-06T13:49:26.663Z,4.99
2019-04-06T13:52:06.264Z,4.94
2019-04-06T13:54:41.128Z,4.94
2019-04-06T13:57:16.065Z,4.94
2019-04-06T13:59:51.392Z,4.95
2019-04-06T14:02:25.893Z,4.84
2019-04-06T14:05:01.161Z,4.90
2019-04-06T14:07:35.830Z,4.90
2019-04-06T14:10:12.190Z,4.94
2019-04-06T14:12:47.038Z,4.93
2019-04-06T14:15:21.562Z,4.82
2019-04-06T14:18:01.967Z,4.59
2019-04-06T14:20:33.915Z,4.35
2019-04-06T14:23:12.771Z,4.47
2019-04-06T14:25:46.159Z,4.53
2019-04-06T14:28:20.731Z,4.36
2019-04-06T14:30:56.561Z,4.41
2019-04-06T14:33:30.907Z,4.51
2019-04-06T14:36:05.501Z,4.36
2019-04-06T14:38:42.254Z,4.54
2019-04-06T14:41:16.996Z,4.31
2019-04-06T14:43:51.646Z,4.37
2019-04-06T14:46:26.560Z,4.41
2019-04-06T14:49:13.600Z,4.46
2019-04-06T14:51:36.577Z,4.24
2019-04-06T14:54:11.472Z,4.17
2019-04-06T14:56:49.457Z,4.07
2019-04-06T14:59:23.937Z,3.99
2019-04-06T15:01:59.460Z,4.05
2019-04-06T15:04:33.250Z,4.03
2019-04-06T15:07:11.570Z,3.85
2019-04-06T15:09:43.078Z,3.90
2019-04-06T15:12:16.893Z,3.75
2019-04-06T15:14:51.512Z,3.90
2019-04-06T15:17:26.188Z,3.89
2019-04-06T15:20:00.786Z,3.68
2019-04-06T15:22:35.366Z,3.67
2019-04-06T15:25:10.615Z,3.67
2019-04-06T15:27:44.983Z,3.50
2019-04-06T15:30:20.086Z,3.59
2019-04-06T15:32:57.251Z,3.44
2019-04-06T15:35:31.459Z,3.24
2019-04-06T15:38:08.080Z,3.17
2019-04-06T15:40:43.473Z,3.33
2019-04-06T15:43:18.875Z,3.21
2019-04-06T15:45:52.950Z,3.36
2019-04-06T15:48:37.417Z,3.28
2019-04-06T15:51:01.661Z,3.36
2019-04-06T15:53:35.580Z,3.30
2019-04-06T15:56:09.874Z,3.49
2019-04-06T15:58:43.907Z,3.57
2019-04-06T16:01:17.671Z,3.58
2019-04-06T16:03:52.279Z,3.50
2019-04-06T16:06:26.730Z,3.45
2019-04-06T16:09:02.515Z,3.49
2019-04-06T16:11:38.858Z,3.44
2019-04-06T16:14:13.828Z,3.40
2019-04-06T16:16:47.981Z,3.43
2019-04-06T16:19:24.127Z,3.48
2019-04-06T16:22:00.770Z,3.37
2019-04-06T16:24:34.942Z,3.33
2019-04-06T16:27:11.436Z,3.25
2019-04-06T16:29:47.212Z,3.21
2019-04-06T16:32:30.973Z,3.23
2019-04-06T16:34:57.583Z,3.08
2019-04-06T16:37:32.268Z,3.12
2019-04-06T16:40:09.524Z,3.15
2019-04-06T16:42:46.026Z,3.13
2019-04-06T16:45:20.727Z,3.05
2019-04-06T16:47:55.269Z,3.07
2019-04-06T16:50:29.563Z,3.06
2019-04-06T16:53:04.867Z,3.06
2019-04-06T16:55:39.435Z,3.00
2019-04-06T16:58:15.431Z,3.02
2019-04-06T17:00:49.965Z,3.06
2019-04-06T17:03:24.264Z,2.95
2019-04-06T17:05:58.321Z,2.90
2019-04-06T17:08:32.384Z,2.91
2019-04-06T17:11:06.925Z,2.93
2019-04-06T17:13:41.190Z,2.94
2019-04-06T17:16:15.365Z,2.75
2019-04-06T17:18:51.269Z,2.82
2019-04-06T17:21:25.567Z,2.69
2019-04-06T17:24:00.067Z,2.61
2019-04-06T17:26:34.402Z,2.78
2019-04-06T17:29:09.714Z,2.77
2019-04-06T17:31:45.855Z,2.73
2019-04-06T17:34:19.932Z,2.76
2019-04-06T17:36:54.075Z,2.86
2019-04-06T17:39:30.182Z,2.93
2019-04-06T17:42:04.042Z,2.95
2019-04-06T17:44:38.240Z,2.86
2019-04-06T17:47:12.178Z,2.77
2019-04-06T17:49:46.513Z,2.77
2019-04-06T17:52:20.766Z,2.75
2019-04-06T17:54:54.887Z,2.76
2019-04-06T17:57:28.985Z,2.81
2019-04-06T18:00:02.926Z,2.84
2019-04-06T18:02:46.909Z,2.81
2019-04-06T18:05:12.520Z,2.86
2019-04-06T18:07:46.419Z,2.67
2019-04-06T18:10:20.353Z,2.66
2019-04-06T18:12:55.368Z,2.70
2019-04-06T18:15:29.040Z,2.69
2019-04-06T18:18:03.249Z,2.69
2019-04-06T18:20:36.911Z,2.71
2019-04-06T18:23:10.603Z,2.77
2019-04-06T18:25:44.657Z,2.78
2019-04-06T18:28:19.698Z,2.70
2019-04-06T18:30:53.715Z,2.56
2019-04-06T18:33:29.472Z,2.60
2019-04-06T18:36:05.437Z,2.60
2019-04-06T18:38:40.583Z,2.49
2019-04-06T18:41:14.840Z,2.46
2019-04-06T18:43:50.650Z,2.46
2019-04-06T18:46:25.157Z,2.41
2019-04-06T18:48:58.731Z,2.44
2019-04-06T18:51:32.765Z,2.34
2019-04-06T18:54:08.288Z,2.36
2019-04-06T18:56:41.372Z,2.44
2019-04-06T18:59:18.618Z,2.38
2019-04-06T19:01:52.230Z,2.41
2019-04-06T19:04:26.419Z,2.34
2019-04-06T19:07:00.327Z,2.13
2019-04-06T19:09:34.420Z,2.22
2019-04-06T19:12:08.207Z,2.25
2019-04-06T19:14:41.808Z,2.24
2019-04-06T19:17:15.759Z,2.28
2019-04-06T19:19:49.986Z,2.24
2019-04-06T19:22:23.991Z,1.99
2019-04-06T19:24:57.836Z,1.93
2019-04-06T19:27:34.056Z,1.94
2019-04-06T19:30:10.964Z,1.89
2019-04-06T19:32:44.752Z,1.98
2019-04-06T19:35:18.685Z,1.92
2019-04-06T19:37:52.455Z,1.78
2019-04-06T19:40:27.038Z,1.71
2019-04-06T19:43:01.051Z,1.52
2019-04-06T19:45:34.982Z,1.69
2019-04-06T19:48:09.654Z,1.62
2019-04-06T19:50:44.540Z,1.59
2019-04-06T19:53:18.877Z,1.45
2019-04-06T19:55:53.080Z,1.40
2019-04-06T19:58:27.405Z,1.44
2019-04-06T20:01:02.130Z,1.05
2019-04-06T20:03:39.273Z,1.14
2019-04-06T20:06:13.297Z,1.17
2019-04-06T20:08:47.548Z,1.13
2019-04-06T20:11:23.640Z,1.18
2019-04-06T20:13:57.403Z,1.21
2019-04-06T20:16:32.544Z,1.21
2019-04-06T20:19:07.735Z,1.07
2019-04-06T20:21:42.016Z,1.09
2019-04-06T20:24:16.034Z,1.19
2019-04-06T20:26:50.307Z,1.11
2019-04-06T20:29:24.763Z,1.11
2019-04-06T20:32:00.380Z,1.12
2019-04-06T20:34:34.735Z,0.99
2019-04-06T20:37:09.415Z,1.18
2019-04-06T20:40:02.315Z,1.13
2019-04-06T20:42:36.083Z,1.14
2019-04-06T20:45:11.393Z,1.02
2019-04-06T20:47:45.370Z,0.97
2019-04-06T20:50:19.384Z,0.87
2019-04-06T20:52:53.400Z,0.97
2019-04-06T20:55:28.089Z,1.00
2019-04-06T20:58:02.059Z,1.06
2019-04-06T21:00:36.195Z,1.10
2019-04-06T21:03:11.756Z,0.93
2019-04-06T21:05:46.491Z,0.99
2019-04-06T21:08:20.662Z,1.09
2019-04-06T21:10:54.185Z,0.97
2019-04-06T21:13:28.370Z,0.95
2019-04-06T21:16:02.222Z,1.05
2019-04-06T21:18:37.925Z,0.92
2019-04-06T21:21:11.711Z,0.98
2019-04-06T21:23:45.420Z,0.93
2019-04-06T21:26:19.434Z,0.97
2019-04-06T21:28:54.014Z,0.98
2019-04-06T21:31:29.025Z,0.89
2019-04-06T21:34:10.375Z,0.90
2019-04-06T21:36:38.648Z,0.83
2019-04-06T21:39:12.361Z,0.99
2019-04-06T21:41:45.944Z,1.04
2019-04-06T21:44:20.344Z,0.91
2019-04-06T21:46:54.643Z,1.07
2019-04-06T21:49:29.031Z,1.19
2019-04-06T21:52:04.887Z,1.09
2019-04-06T21:54:38.925Z,1.06
2019-04-06T21:57:12.899Z,0.98
2019-04-06T21:59:47.222Z,1.01
2019-04-06T22:02:21.636Z,1.16
2019-04-06T22:04:56.173Z,1.15
2019-04-06T22:07:29.942Z,0.97
2019-04-06T22:10:03.818Z,0.97
2019-04-06T22:12:37.814Z,0.98
2019-04-06T22:15:12.435Z,0.87
2019-04-06T22:17:46.753Z,0.87
2019-04-06T22:20:20.573Z,1.02
2019-04-06T22:22:54.226Z,1.06
2019-04-06T22:25:28.017Z,1.08
2019-04-06T22:28:01.880Z,0.96
2019-04-06T22:30:36.727Z,1.01
2019-04-06T22:33:10.764Z,1.11
2019-04-06T22:35:44.343Z,1.07
2019-04-06T22:38:18.188Z,1.14
2019-04-06T22:40:52.028Z,1.58
2019-04-06T22:43:26.136Z,1.75
2019-04-06T22:45:59.924Z,1.88
2019-04-06T22:48:33.887Z,1.94
2019-04-06T22:51:08.401Z,2.37
2019-04-06T22:53:42.264Z,2.69
2019-04-06T22:56:16.570Z,3.04
2019-04-06T22:58:51.593Z,3.81
2019-04-06T23:01:26.655Z,3.68
2019-04-06T23:04:01.402Z,3.95
2019-04-06T23:06:35.493Z,3.78
2019-04-06T23:09:11.011Z,3.48
2019-04-06T23:11:45.862Z,3.34
2019-04-06T23:14:20.771Z,2.99
2019-04-06T23:16:54.493Z,2.50
2019-04-06T23:19:28.480Z,2.90
2019-04-06T23:22:01.994Z,2.66
2019-04-06T23:24:36.365Z,3.23
2019-04-06T23:27:10.042Z,2.64
2019-04-06T23:29:44.017Z,2.66
2019-04-06T23:32:19.268Z,2.85
2019-04-06T23:34:59.914Z,2.92
2019-04-06T23:37:28.741Z,2.99
2019-04-06T23:40:02.406Z,3.06
2019-04-06T23:42:39.050Z,3.44
2019-04-06T23:45:12.945Z,3.74
2019-04-06T23:47:46.887Z,3.98
2019-04-06T23:50:20.606Z,4.24
2019-04-06T23:52:54.945Z,4.64
2019-04-06T23:55:29.408Z,4.09
2019-04-06T23:58:03.872Z,4.21
